Salten — LMFM — position and weather

sailwx.info

Track history (hours):
 
Tides and Currents Weather Stations Pressure Air Temp Water Temp Dewpoint Dewpoint Depression Visibility Wind Speed Wind Dir Waves Ship Positions

Salten

Last reported at 2016-May-27 16:33 UTC. Time now 2016-May-28 06:02 UTC.
Position N 67°31' E 014°39'.

Length 41 m; draft 2 m.

Type: High speed craft. MMSI: 259387000.

Date/timePositionNaut miles runAvg speedWind from/ knotsBaromVisibWave heightAir tempDewpointWater temp
2016-May-27 16:33N 67°31' E 014°39'1515.1
2016-May-27 15:33N 67°17' E 014°22'7 3.5
2016-May-27 13:33N 67°23' E 014°30'7 6.6
2016-May-27 12:34N 67°17' E 014°23'0 0.4
2016-May-27 11:33N 67°17' E 014°22'0 0.0
2016-May-27 10:33N 67°17' E 014°22'0 0.0
2016-May-27 09:33N 67°17' E 014°22'0 0.0
2016-May-27 08:33N 67°17' E 014°22'9 9.3
2016-May-27 07:34N 67°26' E 014°28'11 0.7
2016-May-26 16:06N 67°36' E 014°42'1528.3
2016-May-26 15:34N 67°22' E 014°28'5 5.1
2016-May-26 14:33N 67°17' E 014°22'0 0.0
2016-May-26 13:34N 67°17' E 014°22'0 0.0
2016-May-26 12:34N 67°17' E 014°22'0 0.0
2016-May-26 11:34N 67°17' E 014°22'0 0.1
2016-May-26 10:33N 67°17' E 014°23'7 6.8
2016-May-26 09:33N 67°13' E 014°10'5016.4
2016-May-26 06:31N 66°31' E 013°00'11 0.9
2016-May-25 18:33N 66°20' E 012°59'3611.4
2016-May-25 15:22N 66°54' E 013°34'1721.1
2016-May-25 14:33N 67°08' E 013°58'1312.9
2016-May-25 13:33N 67°17' E 014°22'0 0.0
2016-May-25 12:33N 67°17' E 014°22'0 0.0
2016-May-25 11:33N 67°17' E 014°22'0 0.0
2016-May-25 10:33N 67°17' E 014°22'0 0.0
2016-May-25 09:33N 67°17' E 014°22'0 0.0
2016-May-25 08:33N 67°17' E 014°22'1010.2
2016-May-25 07:33N 67°26' E 014°34'4 0.2
2016-May-24 15:34N 67°24' E 014°27'7 7.1
2016-May-24 14:33N 67°17' E 014°22'0 0.0
2016-May-24 13:33N 67°17' E 014°22'0 0.0
2016-May-24 12:33N 67°17' E 014°22'0 0.0
2016-May-24 11:34N 67°17' E 014°22'0 0.4
2016-May-24 10:33N 67°17' E 014°23'1111.2
2016-May-24 09:34N 67°10' E 014°02'4615.2
2016-May-24 06:32N 66°31' E 012°60'10 0.9
2016-May-23 18:33N 66°21' E 012°60'3611.6
2016-May-23 15:25N 66°55' E 013°30'1719.9
2016-May-23 14:34N 67°08' E 013°58'1413.6
2016-May-23 13:33N 67°17' E 014°24'1 0.6
2016-May-23 12:34N 67°17' E 014°22'0 0.0
2016-May-23 11:34N 67°17' E 014°22'0 0.0
2016-May-23 10:33N 67°17' E 014°22'7 7.0
2016-May-23 09:34N 67°12' E 014°09'5316.2
2016-May-23 06:17N 66°28' E 012°55'9 0.6
2016-May-22 15:22N 66°19' E 012°54'1213.6
2016-May-22 14:27N 66°31' E 013°00'2713.4
2016-May-22 12:28N 66°54' E 013°34'1719.0
2016-May-22 11:34N 67°08' E 013°58'1312.9
2016-May-22 10:33N 67°17' E 014°22'0 0.0
2016-May-22 09:33N 67°17' E 014°22'0 0.0
2016-May-22 08:34N 67°17' E 014°22'0 0.0
2016-May-22 07:33N 67°17' E 014°22'0 0.0
2016-May-22 06:34N 67°17' E 014°22'0 0.0
2016-May-22 05:34N 67°17' E 014°22'0 0.0
2016-May-22 04:34N 67°17' E 014°22'0 0.0
2016-May-22 03:33N 67°17' E 014°22'0 0.0
2016-May-22 02:34N 67°17' E 014°22'0 0.0
2016-May-22 01:33N 67°17' E 014°22'0 0.0
2016-May-22 00:34N 67°17' E 014°22'0 0.0
2016-May-21 23:33N 67°17' E 014°22'0 0.0
2016-May-21 22:33N 67°17' E 014°22'0 0.0
2016-May-21 21:34N 67°17' E 014°22'0 0.0
2016-May-21 20:34N 67°17' E 014°22'0 0.0
2016-May-21 19:34N 67°17' E 014°22'0 0.0
2016-May-21 18:33N 67°17' E 014°22'0 0.0
2016-May-21 17:33N 67°17' E 014°22'0 0.0
2016-May-21 16:33N 67°17' E 014°22'0 0.0
2016-May-21 15:34N 67°17' E 014°22'0 0.0
2016-May-21 14:34N 67°17' E 014°22'0 0.0
2016-May-21 13:33N 67°17' E 014°22'0 0.0
2016-May-21 12:33N 67°17' E 014°22'0 0.0
2016-May-21 11:34N 67°17' E 014°22'0 0.0
2016-May-21 10:33N 67°17' E 014°22'0 0.0
2016-May-21 09:33N 67°17' E 014°22'0 0.4
2016-May-21 08:34N 67°17' E 014°23'1211.9
2016-May-21 07:33N 67°28' E 014°36'3 0.2
2016-May-20 16:33N 67°31' E 014°39'1515.6
2016-May-20 15:34N 67°17' E 014°22'7 3.3
2016-May-20 13:34N 67°23' E 014°30'6 6.2
2016-May-20 12:33N 67°17' E 014°23'0 0.4
2016-May-20 11:34N 67°17' E 014°22'0 0.0
2016-May-20 10:34N 67°17' E 014°22'0 0.0
2016-May-20 09:34N 67°17' E 014°22'0 0.0
2016-May-20 08:33N 67°17' E 014°22'1312.2
2016-May-20 07:32N 67°28' E 014°36'6 0.3
2016-May-19 15:34N 67°24' E 014°27'7 7.3
2016-May-19 14:33N 67°17' E 014°22'0 0.0
2016-May-19 13:33N 67°17' E 014°22'0 0.0
2016-May-19 12:33N 67°17' E 014°22'0 0.0
2016-May-19 11:33N 67°17' E 014°22'0 0.0
2016-May-19 10:33N 67°17' E 014°22'0 0.0
2016-May-19 09:33N 67°17' E 014°22'0 0.0
2016-May-19 08:33N 67°17' E 014°22'9 9.4
2016-May-19 07:34N 67°26' E 014°32'2 0.1
2016-May-18 15:34N 67°25' E 014°27'8 7.9
2016-May-18 14:33N 67°17' E 014°22'0 0.0
2016-May-18 13:33N 67°17' E 014°22'0 0.0
2016-May-18 12:33N 67°17' E 014°22'0 0.0
2016-May-18 11:33N 67°17' E 014°22'0 0.0
2016-May-18 10:33N 67°17' E 014°22'8 8.3
2016-May-18 09:34N 67°11' E 014°07'4815.9
2016-May-18 06:32N 66°31' E 012°60'10 0.9
2016-May-17 18:32N 66°20' E 013°00'  
Track history (hours):
 
Tides and Currents Weather Stations Pressure Air Temp Water Temp Dewpoint Dewpoint Depression Visibility Wind Speed Wind Dir Waves Ship Positions

Salten

Last reported at 2016-May-27 16:33 UTC. Time now 2016-May-28 06:02 UTC.
Position N 67°31' E 014°39'.

Length 41 m; draft 2 m.

Type: High speed craft. MMSI: 259387000.

Date/timePositionNaut miles runAvg speedWind from/ knotsBaromVisibWave heightAir tempDewpointWater temp
2016-May-27 16:33N 67°31' E 014°39'1515.1
2016-May-27 15:33N 67°17' E 014°22'7 3.5
2016-May-27 13:33N 67°23' E 014°30'7 6.6
2016-May-27 12:34N 67°17' E 014°23'0 0.4
2016-May-27 11:33N 67°17' E 014°22'0 0.0
2016-May-27 10:33N 67°17' E 014°22'0 0.0
2016-May-27 09:33N 67°17' E 014°22'0 0.0
2016-May-27 08:33N 67°17' E 014°22'9 9.3
2016-May-27 07:34N 67°26' E 014°28'11 0.7
2016-May-26 16:06N 67°36' E 014°42'1528.3
2016-May-26 15:34N 67°22' E 014°28'5 5.1
2016-May-26 14:33N 67°17' E 014°22'0 0.0
2016-May-26 13:34N 67°17' E 014°22'0 0.0
2016-May-26 12:34N 67°17' E 014°22'0 0.0
2016-May-26 11:34N 67°17' E 014°22'0 0.1
2016-May-26 10:33N 67°17' E 014°23'7 6.8
2016-May-26 09:33N 67°13' E 014°10'5016.4
2016-May-26 06:31N 66°31' E 013°00'11 0.9
2016-May-25 18:33N 66°20' E 012°59'3611.4
2016-May-25 15:22N 66°54' E 013°34'1721.1
2016-May-25 14:33N 67°08' E 013°58'1312.9
2016-May-25 13:33N 67°17' E 014°22'0 0.0
2016-May-25 12:33N 67°17' E 014°22'0 0.0
2016-May-25 11:33N 67°17' E 014°22'0 0.0
2016-May-25 10:33N 67°17' E 014°22'0 0.0
2016-May-25 09:33N 67°17' E 014°22'0 0.0
2016-May-25 08:33N 67°17' E 014°22'1010.2
2016-May-25 07:33N 67°26' E 014°34'4 0.2
2016-May-24 15:34N 67°24' E 014°27'7 7.1
2016-May-24 14:33N 67°17' E 014°22'0 0.0
2016-May-24 13:33N 67°17' E 014°22'0 0.0
2016-May-24 12:33N 67°17' E 014°22'0 0.0
2016-May-24 11:34N 67°17' E 014°22'0 0.4
2016-May-24 10:33N 67°17' E 014°23'1111.2
2016-May-24 09:34N 67°10' E 014°02'4615.2
2016-May-24 06:32N 66°31' E 012°60'10 0.9
2016-May-23 18:33N 66°21' E 012°60'3611.6
2016-May-23 15:25N 66°55' E 013°30'1719.9
2016-May-23 14:34N 67°08' E 013°58'1413.6
2016-May-23 13:33N 67°17' E 014°24'1 0.6
2016-May-23 12:34N 67°17' E 014°22'0 0.0
2016-May-23 11:34N 67°17' E 014°22'0 0.0
2016-May-23 10:33N 67°17' E 014°22'7 7.0
2016-May-23 09:34N 67°12' E 014°09'5316.2
2016-May-23 06:17N 66°28' E 012°55'9 0.6
2016-May-22 15:22N 66°19' E 012°54'1213.6
2016-May-22 14:27N 66°31' E 013°00'2713.4
2016-May-22 12:28N 66°54' E 013°34'1719.0
2016-May-22 11:34N 67°08' E 013°58'1312.9
2016-May-22 10:33N 67°17' E 014°22'0 0.0
2016-May-22 09:33N 67°17' E 014°22'0 0.0
2016-May-22 08:34N 67°17' E 014°22'0 0.0
2016-May-22 07:33N 67°17' E 014°22'0 0.0
2016-May-22 06:34N 67°17' E 014°22'0 0.0
2016-May-22 05:34N 67°17' E 014°22'0 0.0
2016-May-22 04:34N 67°17' E 014°22'0 0.0
2016-May-22 03:33N 67°17' E 014°22'0 0.0
2016-May-22 02:34N 67°17' E 014°22'0 0.0
2016-May-22 01:33N 67°17' E 014°22'0 0.0
2016-May-22 00:34N 67°17' E 014°22'0 0.0
2016-May-21 23:33N 67°17' E 014°22'0 0.0
2016-May-21 22:33N 67°17' E 014°22'0 0.0
2016-May-21 21:34N 67°17' E 014°22'0 0.0
2016-May-21 20:34N 67°17' E 014°22'0 0.0
2016-May-21 19:34N 67°17' E 014°22'0 0.0
2016-May-21 18:33N 67°17' E 014°22'0 0.0
2016-May-21 17:33N 67°17' E 014°22'0 0.0
2016-May-21 16:33N 67°17' E 014°22'0 0.0
2016-May-21 15:34N 67°17' E 014°22'0 0.0
2016-May-21 14:34N 67°17' E 014°22'0 0.0
2016-May-21 13:33N 67°17' E 014°22'0 0.0
2016-May-21 12:33N 67°17' E 014°22'0 0.0
2016-May-21 11:34N 67°17' E 014°22'0 0.0
2016-May-21 10:33N 67°17' E 014°22'0 0.0
2016-May-21 09:33N 67°17' E 014°22'0 0.4
2016-May-21 08:34N 67°17' E 014°23'1211.9
2016-May-21 07:33N 67°28' E 014°36'3 0.2
2016-May-20 16:33N 67°31' E 014°39'1515.6
2016-May-20 15:34N 67°17' E 014°22'7 3.3
2016-May-20 13:34N 67°23' E 014°30'6 6.2
2016-May-20 12:33N 67°17' E 014°23'0 0.4
2016-May-20 11:34N 67°17' E 014°22'0 0.0
2016-May-20 10:34N 67°17' E 014°22'0 0.0
2016-May-20 09:34N 67°17' E 014°22'0 0.0
2016-May-20 08:33N 67°17' E 014°22'1312.2
2016-May-20 07:32N 67°28' E 014°36'6 0.3
2016-May-19 15:34N 67°24' E 014°27'7 7.3
2016-May-19 14:33N 67°17' E 014°22'0 0.0
2016-May-19 13:33N 67°17' E 014°22'0 0.0
2016-May-19 12:33N 67°17' E 014°22'0 0.0
2016-May-19 11:33N 67°17' E 014°22'0 0.0
2016-May-19 10:33N 67°17' E 014°22'0 0.0
2016-May-19 09:33N 67°17' E 014°22'0 0.0
2016-May-19 08:33N 67°17' E 014°22'9 9.4
2016-May-19 07:34N 67°26' E 014°32'2 0.1
2016-May-18 15:34N 67°25' E 014°27'8 7.9
2016-May-18 14:33N 67°17' E 014°22'0 0.0
2016-May-18 13:33N 67°17' E 014°22'0 0.0
2016-May-18 12:33N 67°17' E 014°22'0 0.0
2016-May-18 11:33N 67°17' E 014°22'0 0.0
2016-May-18 10:33N 67°17' E 014°22'8 8.3
2016-May-18 09:34N 67°11' E 014°07'4815.9
2016-May-18 06:32N 66°31' E 012°60'10 0.9
2016-May-17 18:32N 66°20' E 013°00'  

Dump ship's entire track history